Ann Arbor, Michigan
Current Conditions -  °F | °C
As of 3:53 AM on Saturday 01 Nov 2014 (Local Time) from KARB Reporting Station
Overcast Overcast  
Wind Chill: 23°   Ceiling: 2500
Heat Index: 34°   Visibility: 10mi
Dew Point: 26°   Wind: 17mph
Humidity: 73%   Direction: 10°N
Pressure: 30.16"   Gusts: 26mph
Location:  42.28°N, 83.75°W
Report Text: KARB 010753Z AUTO 01015G23KT 10SM OVC025 01/M03 A3016 RMK AO2 PK WND 36029/0726 SLP220 T00111033
Loading
Personal Weather Stations






























Interactive Weather Map
Tropical Storm Tracking
New forecast layout! Learn more

10-Day Weather Forecast

Advertisements
Track Severe Weather on mobile